createdAt,value
2023-11-24T00:00:42.497Z,0.93
2023-11-24T00:03:25.512Z,0.60
2023-11-24T00:06:08.724Z,0.88
2023-11-24T00:08:51.608Z,0.80
2023-11-24T00:11:35.194Z,0.80
2023-11-24T00:14:17.962Z,0.80
2023-11-24T00:17:02.025Z,0.90
2023-11-24T00:19:44.812Z,0.93
2023-11-24T00:22:27.489Z,0.65
2023-11-24T00:25:10.603Z,1.20
2023-11-24T00:27:55.861Z,1.08
2023-11-24T00:30:38.655Z,0.90
2023-11-24T00:33:23.264Z,1.00
2023-11-24T00:36:07.475Z,1.08
2023-11-24T00:38:51.566Z,0.80
2023-11-24T00:41:34.491Z,1.10
2023-11-24T00:44:17.209Z,1.17
2023-11-24T00:47:00.057Z,0.95
2023-11-24T00:49:44.137Z,0.57
2023-11-24T00:52:27.422Z,0.50
2023-11-24T00:55:10.341Z,0.80
2023-11-24T00:57:53.160Z,0.40
2023-11-24T01:00:35.984Z,0.60
2023-11-24T01:03:18.971Z,0.60
2023-11-24T01:06:04.446Z,0.60
2023-11-24T01:08:47.182Z,0.70
2023-11-24T01:11:29.924Z,0.63
2023-11-24T01:14:12.644Z,1.00
2023-11-24T01:16:55.393Z,0.63
2023-11-24T01:19:38.512Z,0.80
2023-11-24T01:22:25.772Z,0.73
2023-11-24T01:25:09.445Z,0.75
2023-11-24T01:27:52.164Z,1.10
2023-11-24T01:30:35.305Z,0.68
2023-11-24T01:33:18.827Z,0.93
2023-11-24T01:36:02.206Z,0.85
2023-11-24T01:38:47.014Z,0.68
2023-11-24T01:41:29.682Z,0.50
2023-11-24T01:44:13.398Z,0.63
2023-11-24T01:46:56.297Z,0.40
2023-11-24T01:49:39.939Z,0.50
2023-11-24T01:52:22.752Z,0.47
2023-11-24T01:55:07.593Z,0.50
2023-11-24T01:57:51.098Z,0.63
2023-11-24T02:00:34.510Z,0.55
2023-11-24T02:03:18.778Z,0.50
2023-11-24T02:06:01.772Z,0.57
2023-11-24T02:08:44.879Z,0.60
2023-11-24T02:11:28.901Z,0.40
2023-11-24T02:14:11.691Z,0.38
2023-11-24T02:16:54.601Z,0.57
2023-11-24T02:19:37.409Z,0.60
2023-11-24T02:22:20.137Z,0.50
2023-11-24T02:25:05.171Z,0.60
2023-11-24T02:27:47.927Z,0.60
2023-11-24T02:30:30.690Z,0.70
2023-11-24T02:33:13.567Z,0.50
2023-11-24T02:35:56.631Z,0.70
2023-11-24T02:38:39.307Z,0.52
2023-11-24T02:41:23.488Z,0.50
2023-11-24T02:44:06.348Z,0.52
2023-11-24T02:46:49.091Z,0.60
2023-11-24T02:49:33.756Z,0.50
2023-11-24T02:52:16.571Z,0.55
2023-11-24T02:54:59.385Z,0.50
2023-11-24T02:57:44.915Z,0.50
2023-11-24T03:00:28.292Z,0.40
2023-11-24T03:03:11.079Z,0.55
2023-11-24T03:05:53.716Z,0.50
2023-11-24T03:08:36.388Z,0.47
2023-11-24T03:11:19.043Z,0.70
2023-11-24T03:14:03.056Z,0.60
2023-11-24T03:16:46.984Z,0.63
2023-11-24T03:19:29.788Z,0.60
2023-11-24T03:22:12.818Z,0.63
2023-11-24T03:24:55.631Z,0.50
2023-11-24T03:27:38.558Z,0.50
2023-11-24T03:30:22.685Z,0.65
2023-11-24T03:33:05.772Z,0.73
2023-11-24T03:35:49.617Z,1.00
2023-11-24T03:38:32.315Z,1.08
2023-11-24T03:41:14.988Z,1.00
2023-11-24T03:43:57.659Z,0.80
2023-11-24T03:46:41.884Z,0.95
2023-11-24T03:49:24.541Z,0.95
2023-11-24T03:52:07.414Z,0.90
2023-11-24T03:54:51.477Z,0.77
2023-11-24T03:57:34.677Z,1.10
2023-11-24T04:00:18.036Z,1.20
2023-11-24T04:03:02.218Z,0.88
2023-11-24T04:05:47.965Z,1.00
2023-11-24T04:08:30.672Z,0.80
2023-11-24T04:11:13.455Z,0.73
2023-11-24T04:13:56.198Z,1.13
2023-11-24T04:16:38.985Z,1.00
2023-11-24T04:19:24.608Z,1.30
2023-11-24T04:22:07.553Z,1.40
2023-11-24T04:24:50.392Z,0.60
2023-11-24T04:27:34.312Z,1.13
2023-11-24T04:30:17.688Z,0.93
2023-11-24T04:33:00.416Z,1.00
2023-11-24T04:35:44.508Z,0.80
2023-11-24T04:38:27.283Z,0.80
2023-11-24T04:41:10.239Z,0.80
2023-11-24T04:43:52.968Z,1.38
2023-11-24T04:46:35.818Z,0.63
2023-11-24T04:49:18.955Z,1.05
2023-11-24T04:52:03.074Z,1.00
2023-11-24T04:54:45.814Z,0.75
2023-11-24T04:57:28.665Z,1.20
2023-11-24T05:00:12.038Z,0.90
2023-11-24T05:02:54.730Z,1.00
2023-11-24T05:05:40.103Z,0.90
2023-11-24T05:08:24.271Z,0.90
2023-11-24T05:11:08.079Z,0.80
2023-11-24T05:13:50.890Z,0.88
2023-11-24T05:16:33.953Z,0.95
2023-11-24T05:19:17.183Z,1.05
2023-11-24T05:21:59.912Z,0.82
2023-11-24T05:24:44.032Z,0.90
2023-11-24T05:27:26.713Z,1.25
2023-11-24T05:30:12.005Z,1.00
2023-11-24T05:32:54.723Z,1.05
2023-11-24T05:35:38.306Z,0.95
2023-11-24T05:38:21.122Z,1.00
2023-11-24T05:41:06.034Z,1.08
2023-11-24T05:43:48.719Z,1.20
2023-11-24T05:46:32.073Z,1.27
2023-11-24T05:49:16.104Z,1.23
2023-11-24T05:51:58.917Z,1.00
2023-11-24T05:54:41.723Z,1.17
2023-11-24T05:57:25.846Z,1.45
2023-11-24T06:00:10.590Z,0.80
2023-11-24T06:02:55.852Z,1.40
2023-11-24T06:05:38.596Z,1.38
2023-11-24T06:08:21.356Z,0.98
2023-11-24T06:11:04.482Z,0.95
2023-11-24T06:13:48.645Z,1.02
2023-11-24T06:16:32.294Z,0.93
2023-11-24T06:19:15.108Z,1.25
2023-11-24T06:21:58.027Z,1.30
2023-11-24T06:24:40.902Z,1.15
2023-11-24T06:27:23.586Z,1.05
2023-11-24T06:30:08.472Z,1.48
2023-11-24T06:32:51.252Z,1.13
2023-11-24T06:35:34.015Z,1.48
2023-11-24T06:38:16.821Z,1.05
2023-11-24T06:40:59.569Z,1.25
2023-11-24T06:43:42.280Z,1.10
2023-11-24T06:46:27.228Z,1.30
2023-11-24T06:49:10.929Z,1.00
2023-11-24T06:51:53.990Z,1.10
2023-11-24T06:54:36.945Z,1.17
2023-11-24T06:57:19.626Z,0.90
2023-11-24T07:00:02.413Z,1.00
2023-11-24T07:02:47.317Z,1.00
2023-11-24T07:05:30.707Z,0.95
2023-11-24T07:08:13.626Z,0.98
2023-11-24T07:10:56.411Z,1.27
2023-11-24T07:13:39.131Z,1.15
2023-11-24T07:16:23.753Z,1.13
2023-11-24T07:19:08.180Z,1.10
2023-11-24T07:21:50.941Z,1.10
2023-11-24T07:24:33.955Z,0.95
2023-11-24T07:27:18.304Z,0.90
2023-11-24T07:30:01.137Z,1.13
2023-11-24T07:32:43.921Z,0.75
2023-11-24T07:35:28.839Z,0.90
2023-11-24T07:38:11.576Z,0.93
2023-11-24T07:40:55.242Z,0.88
2023-11-24T07:43:38.045Z,0.68
2023-11-24T07:46:21.041Z,0.75
2023-11-24T07:49:04.626Z,0.90
2023-11-24T07:51:48.865Z,0.80
2023-11-24T07:54:31.543Z,0.50
2023-11-24T07:57:14.263Z,0.70
2023-11-24T07:59:57.389Z,0.90
2023-11-24T08:02:40.651Z,0.57
2023-11-24T08:05:23.528Z,0.60
2023-11-24T08:08:07.678Z,0.75
2023-11-24T08:10:50.494Z,0.80
2023-11-24T08:13:33.409Z,0.82
2023-11-24T08:16:16.255Z,0.80
2023-11-24T08:18:59.098Z,1.00
2023-11-24T08:21:42.286Z,1.00
2023-11-24T08:24:26.952Z,0.73
2023-11-24T08:27:10.122Z,0.93
2023-11-24T08:29:53.131Z,0.60
2023-11-24T08:32:35.957Z,0.80
2023-11-24T08:35:19.340Z,0.70
2023-11-24T08:38:04.855Z,0.80
2023-11-24T08:40:48.911Z,0.90
2023-11-24T08:43:31.583Z,0.73
2023-11-24T08:46:14.583Z,0.80
2023-11-24T08:48:57.417Z,0.82
2023-11-24T08:51:40.913Z,0.77
2023-11-24T08:54:23.864Z,0.60
2023-11-24T08:57:08.844Z,1.00
2023-11-24T08:59:51.584Z,0.50
2023-11-24T09:02:34.358Z,0.60
2023-11-24T09:05:17.355Z,0.80
2023-11-24T09:08:00.204Z,0.70
2023-11-24T09:10:43.566Z,1.02
2023-11-24T09:13:28.393Z,0.85
2023-11-24T09:16:11.173Z,0.70
2023-11-24T09:18:56.483Z,0.70
2023-11-24T09:21:40.224Z,0.77
2023-11-24T09:24:23.253Z,0.60
2023-11-24T09:27:06.225Z,0.93
2023-11-24T09:29:50.478Z,0.70
2023-11-24T09:32:36.303Z,1.08
2023-11-24T09:35:20.001Z,0.80
2023-11-24T09:38:02.754Z,0.90
2023-11-24T09:40:45.890Z,1.02
2023-11-24T09:43:29.016Z,0.70
2023-11-24T09:46:13.559Z,0.73
2023-11-24T09:48:56.827Z,0.98
2023-11-24T09:51:41.052Z,0.65
2023-11-24T09:54:23.854Z,0.80
2023-11-24T09:57:06.770Z,1.00
2023-11-24T09:59:49.581Z,0.70
2023-11-24T10:02:33.791Z,0.40
2023-11-24T10:05:19.717Z,0.77
2023-11-24T10:08:02.709Z,0.50
2023-11-24T10:10:46.448Z,0.60
2023-11-24T10:13:29.367Z,0.40
2023-11-24T10:16:13.108Z,0.60
2023-11-24T10:18:57.451Z,0.90
2023-11-24T10:21:40.220Z,0.90
2023-11-24T10:24:26.425Z,0.73
2023-11-24T10:27:20.669Z,0.80
2023-11-24T10:30:05.928Z,0.93
2023-11-24T10:32:49.770Z,0.73
2023-11-24T10:35:34.250Z,0.77
2023-11-24T10:38:20.536Z,1.00
2023-11-24T10:41:05.269Z,0.73
2023-11-24T10:43:49.722Z,0.80
2023-11-24T10:46:34.475Z,0.75
2023-11-24T10:49:19.431Z,0.60
2023-11-24T10:52:07.717Z,0.55
2023-11-24T10:54:52.301Z,0.82
2023-11-24T10:57:35.500Z,0.50
2023-11-24T11:00:21.772Z,0.60
2023-11-24T11:03:06.603Z,0.60
2023-11-24T11:05:57.098Z,0.70
2023-11-24T11:08:43.661Z,0.50
2023-11-24T11:11:36.041Z,0.45
2023-11-24T11:14:21.068Z,0.75
2023-11-24T11:17:14.267Z,0.80
2023-11-24T11:20:00.712Z,0.55
2023-11-24T11:22:44.990Z,0.43
2023-11-24T11:25:39.899Z,0.50
2023-11-24T11:28:47.877Z,0.40
2023-11-24T11:31:35.510Z,0.73
2023-11-24T11:34:19.019Z,0.52
2023-11-24T11:37:08.314Z,0.60
2023-11-24T11:39:58.834Z,0.40
2023-11-24T11:42:54.591Z,0.40
2023-11-24T11:45:48.019Z,0.63
2023-11-24T11:48:32.309Z,0.50
2023-11-24T11:51:18.480Z,0.60
2023-11-24T11:54:01.350Z,0.60
2023-11-24T11:56:45.505Z,0.50
2023-11-24T11:59:29.661Z,0.55
2023-11-24T12:02:18.176Z,0.50
2023-11-24T12:05:02.143Z,0.60
2023-11-24T12:07:48.237Z,0.40
2023-11-24T12:10:31.696Z,0.47
2023-11-24T12:13:14.987Z,0.30
2023-11-24T12:16:01.075Z,0.50
2023-11-24T12:18:44.050Z,0.45
2023-11-24T12:21:27.034Z,0.57
2023-11-24T12:24:15.362Z,0.50
2023-11-24T12:27:00.853Z,0.70
2023-11-24T12:29:47.124Z,0.55
2023-11-24T12:32:33.853Z,0.70
2023-11-24T12:35:16.817Z,0.50
2023-11-24T12:37:59.697Z,0.63
2023-11-24T12:40:44.141Z,0.40
2023-11-24T12:43:27.075Z,0.50
2023-11-24T12:46:19.935Z,0.60
2023-11-24T12:49:05.783Z,0.88
2023-11-24T12:51:49.196Z,0.70
2023-11-24T12:54:32.484Z,0.73
2023-11-24T12:57:15.480Z,0.50
2023-11-24T12:59:59.939Z,0.88
2023-11-24T13:02:42.803Z,0.60
2023-11-24T13:05:27.907Z,0.63
2023-11-24T13:08:10.751Z,0.75
2023-11-24T13:10:54.726Z,0.50
2023-11-24T13:13:37.439Z,0.50
2023-11-24T13:16:20.523Z,0.65
2023-11-24T13:19:03.684Z,0.60
2023-11-24T13:21:47.934Z,0.85
2023-11-24T13:24:32.556Z,0.40
2023-11-24T13:27:17.504Z,0.50
2023-11-24T13:30:00.350Z,0.63
2023-11-24T13:32:43.755Z,0.50
2023-11-24T13:35:27.328Z,0.70
2023-11-24T13:38:11.998Z,0.57
2023-11-24T13:40:55.864Z,0.77
2023-11-24T13:43:38.773Z,0.75
2023-11-24T13:46:21.637Z,0.90
2023-11-24T13:49:04.731Z,0.60
2023-11-24T13:51:47.987Z,0.75
2023-11-24T13:54:34.665Z,0.60
2023-11-24T13:57:17.486Z,0.90
2023-11-24T14:00:00.320Z,0.70
2023-11-24T14:02:43.149Z,0.60
2023-11-24T14:05:25.879Z,0.50
2023-11-24T14:08:10.607Z,0.43
2023-11-24T14:10:54.715Z,0.70
2023-11-24T14:13:38.080Z,0.60
2023-11-24T14:16:22.694Z,0.60
2023-11-24T14:19:06.550Z,0.80
2023-11-24T14:21:50.560Z,0.50
2023-11-24T14:24:33.944Z,0.50
2023-11-24T14:27:18.205Z,0.50
2023-11-24T14:30:00.918Z,0.65
2023-11-24T14:32:43.901Z,0.52
2023-11-24T14:35:26.698Z,0.60
2023-11-24T14:38:09.536Z,0.45
2023-11-24T14:40:52.226Z,0.70
2023-11-24T14:43:36.479Z,0.40
2023-11-24T14:46:20.978Z,0.50
2023-11-24T14:49:04.992Z,0.50
2023-11-24T14:51:49.739Z,0.52
2023-11-24T14:54:34.831Z,0.68
2023-11-24T14:57:17.517Z,0.55
2023-11-24T15:00:02.679Z,0.70
2023-11-24T15:02:46.557Z,0.60
2023-11-24T15:05:31.481Z,0.55
2023-11-24T15:08:15.439Z,0.60
2023-11-24T15:11:00.801Z,0.50
2023-11-24T15:13:44.657Z,0.50
2023-11-24T15:16:30.444Z,0.57
2023-11-24T15:19:13.318Z,0.50
2023-11-24T15:21:57.200Z,0.70
2023-11-24T15:24:40.129Z,0.47
2023-11-24T15:27:23.091Z,0.43
2023-11-24T15:30:06.458Z,0.50
2023-11-24T15:32:50.593Z,0.40
2023-11-24T15:35:33.604Z,0.30
2023-11-24T15:38:17.615Z,0.28
2023-11-24T15:41:06.555Z,0.30
2023-11-24T15:43:49.615Z,0.40
2023-11-24T15:46:35.106Z,0.30
2023-11-24T15:49:19.808Z,0.50
2023-11-24T15:52:05.461Z,0.40
2023-11-24T15:54:48.224Z,0.50
2023-11-24T15:57:30.912Z,0.40
2023-11-24T16:00:20.644Z,0.40
2023-11-24T16:03:03.567Z,0.50
2023-11-24T16:05:50.516Z,0.65
2023-11-24T16:08:44.092Z,0.52
2023-11-24T16:11:28.118Z,0.80
2023-11-24T16:14:11.082Z,0.50
2023-11-24T16:16:54.528Z,0.80
2023-11-24T16:19:37.464Z,0.73
2023-11-24T16:22:22.237Z,0.77
2023-11-24T16:25:05.376Z,0.60
2023-11-24T16:27:48.197Z,0.80
2023-11-24T16:30:31.069Z,0.50
2023-11-24T16:33:14.032Z,0.70
2023-11-24T16:35:59.411Z,0.60
2023-11-24T16:38:44.235Z,0.50
2023-11-24T16:41:26.951Z,0.52
2023-11-24T16:44:09.818Z,0.50
2023-11-24T16:46:56.509Z,0.80
2023-11-24T16:49:39.286Z,0.63
2023-11-24T16:52:22.708Z,0.63
2023-11-24T16:55:09.216Z,0.60
2023-11-24T16:57:51.941Z,0.50
2023-11-24T17:00:34.969Z,0.60
2023-11-24T17:03:17.803Z,0.90
2023-11-24T17:06:00.600Z,0.85
2023-11-24T17:08:43.539Z,0.60
2023-11-24T17:11:27.657Z,0.80
2023-11-24T17:14:10.469Z,0.98
2023-11-24T17:16:53.326Z,0.90
2023-11-24T17:19:36.241Z,0.90
2023-11-24T17:22:19.817Z,0.75
2023-11-24T17:25:02.792Z,1.10
2023-11-24T17:27:46.982Z,0.90
2023-11-24T17:30:29.796Z,1.00
2023-11-24T17:33:12.782Z,0.88
2023-11-24T17:35:55.534Z,1.00
2023-11-24T17:38:38.293Z,1.00
2023-11-24T17:41:21.103Z,0.80
2023-11-24T17:44:06.029Z,0.90
2023-11-24T17:46:49.964Z,1.00
2023-11-24T17:49:32.945Z,1.00
2023-11-24T17:52:15.891Z,0.93
2023-11-24T17:54:58.791Z,1.10
2023-11-24T17:57:41.500Z,1.05
2023-11-24T18:00:30.027Z,0.57
2023-11-24T18:03:12.859Z,0.50
2023-11-24T18:05:55.622Z,0.40
2023-11-24T18:08:38.381Z,0.45
2023-11-24T18:11:21.281Z,0.40
2023-11-24T18:14:04.591Z,0.52
2023-11-24T18:16:48.946Z,0.30
2023-11-24T18:19:31.751Z,0.50
2023-11-24T18:22:14.590Z,0.30
2023-11-24T18:24:59.207Z,0.40
2023-11-24T18:27:42.140Z,0.50
2023-11-24T18:30:24.904Z,0.30
2023-11-24T18:33:09.700Z,0.50
2023-11-24T18:35:52.731Z,0.47
2023-11-24T18:38:35.511Z,0.50
2023-11-24T18:41:18.615Z,0.40
2023-11-24T18:44:01.675Z,0.30
2023-11-24T18:46:44.750Z,0.35
2023-11-24T18:49:28.954Z,0.30
2023-11-24T18:52:12.270Z,0.50
2023-11-24T18:54:55.381Z,0.40
2023-11-24T18:57:38.193Z,0.60
2023-11-24T19:00:21.673Z,0.50
2023-11-24T19:03:05.667Z,0.40
2023-11-24T19:05:50.163Z,0.40
2023-11-24T19:08:33.445Z,0.40
2023-11-24T19:11:21.298Z,0.30
2023-11-24T19:14:04.457Z,0.40
2023-11-24T19:16:47.484Z,0.40
2023-11-24T19:19:30.715Z,0.45
2023-11-24T19:22:15.638Z,0.40
2023-11-24T19:24:58.563Z,0.40
2023-11-24T19:27:41.472Z,0.43
2023-11-24T19:30:24.197Z,0.40
2023-11-24T19:33:07.144Z,0.60
2023-11-24T19:35:50.011Z,0.47
2023-11-24T19:38:34.167Z,0.60
2023-11-24T19:41:17.200Z,0.80
2023-11-24T19:44:00.057Z,0.55
2023-11-24T19:46:42.829Z,0.60
2023-11-24T19:49:25.764Z,0.80
2023-11-24T19:52:09.796Z,0.70
2023-11-24T19:54:54.028Z,1.08
2023-11-24T19:57:36.777Z,0.90
2023-11-24T20:00:20.249Z,1.70
2023-11-24T20:03:03.600Z,1.58
2023-11-24T20:05:46.618Z,1.65
2023-11-24T20:08:29.670Z,1.30
2023-11-24T20:11:14.242Z,1.40
2023-11-24T20:13:57.302Z,1.17
2023-11-24T20:16:40.725Z,0.80
2023-11-24T20:19:23.871Z,0.82
2023-11-24T20:22:12.608Z,1.13
2023-11-24T20:24:55.358Z,0.60
2023-11-24T20:27:39.615Z,0.80
2023-11-24T20:30:22.384Z,0.70
2023-11-24T20:33:06.524Z,0.75
2023-11-24T20:35:49.261Z,0.68
2023-11-24T20:38:32.186Z,0.70
2023-11-24T20:41:15.008Z,0.80
2023-11-24T20:43:59.302Z,0.73
2023-11-24T20:46:42.323Z,0.60
2023-11-24T20:49:26.084Z,0.73
2023-11-24T20:52:08.931Z,0.80
2023-11-24T20:54:51.862Z,0.70
2023-11-24T20:57:34.596Z,0.80
2023-11-24T21:00:19.904Z,1.10
2023-11-24T21:03:03.448Z,1.13
2023-11-24T21:05:46.441Z,1.00
2023-11-24T21:08:29.239Z,0.90
2023-11-24T21:11:11.932Z,0.73
2023-11-24T21:13:56.119Z,0.55
2023-11-24T21:16:40.419Z,0.60
2023-11-24T21:19:23.132Z,0.88
2023-11-24T21:22:06.090Z,0.60
2023-11-24T21:24:51.299Z,0.68
2023-11-24T21:27:34.130Z,0.68
2023-11-24T21:30:16.995Z,0.68
2023-11-24T21:33:01.264Z,0.70
2023-11-24T21:35:45.467Z,0.70
2023-11-24T21:38:30.080Z,0.55
2023-11-24T21:41:13.291Z,0.55
2023-11-24T21:43:57.292Z,0.50
2023-11-24T21:46:40.224Z,0.50
2023-11-24T21:49:24.425Z,0.70
2023-11-24T21:52:07.703Z,0.70
2023-11-24T21:54:51.163Z,0.57
2023-11-24T21:57:34.350Z,0.70
2023-11-24T22:00:18.928Z,0.80
2023-11-24T22:03:02.035Z,0.70
2023-11-24T22:05:49.257Z,0.73
2023-11-24T22:08:32.123Z,0.65
2023-11-24T22:11:14.950Z,0.68
2023-11-24T22:13:57.989Z,0.60
2023-11-24T22:16:40.814Z,0.65
2023-11-24T22:19:24.015Z,0.60
2023-11-24T22:22:08.304Z,0.60
2023-11-24T22:24:51.023Z,0.60
2023-11-24T22:27:35.333Z,0.70
2023-11-24T22:30:18.133Z,0.60
2023-11-24T22:33:00.846Z,1.00
2023-11-24T22:35:44.194Z,0.90
2023-11-24T22:38:28.428Z,0.82
2023-11-24T22:41:16.866Z,0.65
2023-11-24T22:43:59.620Z,0.70
2023-11-24T22:46:42.414Z,0.70
2023-11-24T22:49:25.247Z,0.60
2023-11-24T22:52:08.317Z,0.80
2023-11-24T22:54:52.620Z,0.70
2023-11-24T22:57:35.860Z,0.93
2023-11-24T23:00:33.531Z,0.70
2023-11-24T23:03:16.749Z,0.63
2023-11-24T23:05:59.629Z,0.65
2023-11-24T23:08:42.409Z,1.02
2023-11-24T23:11:27.161Z,0.63
2023-11-24T23:14:09.940Z,1.20
2023-11-24T23:16:52.735Z,1.38
2023-11-24T23:19:36.134Z,1.50
2023-11-24T23:22:27.285Z,1.08
2023-11-24T23:25:18.015Z,1.25
2023-11-24T23:28:02.685Z,0.75
2023-11-24T23:30:45.488Z,0.70
2023-11-24T23:33:28.328Z,0.63
2023-11-24T23:36:13.274Z,0.80
2023-11-24T23:38:56.280Z,0.60
2023-11-24T23:41:39.074Z,0.65
2023-11-24T23:44:23.158Z,0.70
2023-11-24T23:47:06.570Z,0.95
2023-11-24T23:49:49.649Z,1.20
2023-11-24T23:52:32.438Z,1.20
2023-11-24T23:55:15.383Z,0.98
2023-11-24T23:57:59.809Z,0.70
